Time;durP1;ratioP1;P1;durP2;ratioP2;P2;SDS_P1;SDS_P2;PMS_P1;PMS_P2;Temp;Humidity;BMP_temperature;BMP_pressure;BME280_temperature;BME280_humidity;BME280_pressure;Samples;Min_cycle;Max_cycle;Signal;HPM_P1;HPM_P2
2023/06/26 00:01:33;;;;;;;5.22;3.35;;;;;;;-142.75;100.00;75389.38;5042320;28;20129;-62
2023/06/26 00:03:59;;;;;;;6.10;3.47;;;;;;;-142.75;100.00;75389.38;5042054;28;20037;-61
2023/06/26 00:06:25;;;;;;;5.28;3.20;;;;;;;-142.75;100.00;75407.09;5043464;28;20017;-62
2023/06/26 00:08:56;;;;;;;4.30;2.67;;;;;;;-142.75;100.00;75414.97;5042837;28;20047;-62
2023/06/26 00:11:22;;;;;;;5.38;3.22;;;;;;;-142.75;100.00;75428.75;5042222;28;20679;-62
2023/06/26 00:13:48;;;;;;;6.18;2.75;;;;;;;-142.75;100.00;75422.84;5061098;28;20033;-62
2023/06/26 00:16:13;;;;;;;4.88;3.20;;;;;;;-142.75;100.00;75432.69;5064540;28;20020;-62
2023/06/26 00:18:38;;;;;;;5.32;3.20;;;;;;;-142.75;100.00;75432.69;5055973;28;20039;-62
2023/06/26 00:21:04;;;;;;;9.10;3.25;;;;;;;-142.75;100.00;75440.53;5045881;28;20111;-63
2023/06/26 00:23:30;;;;;;;4.80;3.17;;;;;;;-142.75;100.00;75446.44;5046821;28;20020;-62
2023/06/26 00:25:56;;;;;;;5.28;3.28;;;;;;;-142.75;100.00;75470.06;5060866;28;20028;-62
2023/06/26 00:28:21;;;;;;;5.53;3.20;;;;;;;-142.75;100.00;75479.91;5065193;28;20035;-62
2023/06/26 00:30:47;;;;;;;6.35;3.50;;;;;;;-142.75;100.00;75475.97;5064259;28;20059;-62
2023/06/26 00:33:12;;;;;;;6.78;2.92;;;;;;;-142.75;100.00;75487.78;5051656;28;20397;-62
2023/06/26 00:35:37;;;;;;;7.68;3.60;;;;;;;-142.75;100.00;75511.41;5041277;28;20062;-61
2023/06/26 00:38:03;;;;;;;8.70;2.90;;;;;;;-142.75;100.00;75531.06;5053067;28;20028;-62
2023/06/26 00:40:28;;;;;;;6.18;3.17;;;;;;;-142.75;100.00;75525.16;5054807;28;20118;-62
2023/06/26 00:42:53;;;;;;;6.47;2.50;;;;;;;-142.75;100.00;75527.13;5044368;28;20053;-62
2023/06/26 00:45:19;;;;;;;6.50;3.17;;;;;;;-142.75;100.00;75527.13;5042733;28;20182;-61
2023/06/26 00:47:44;;;;;;;6.93;3.10;;;;;;;-142.75;100.00;75535.00;5039367;28;20028;-62
2023/06/26 00:50:10;;;;;;;8.88;3.35;;;;;;;-142.75;100.00;75556.66;5044440;28;20027;-62
2023/06/26 00:52:36;;;;;;;4.25;2.13;;;;;;;-142.75;100.00;75554.69;5042495;28;20028;-62
2023/06/26 00:55:02;;;;;;;10.23;3.00;;;;;;;-142.75;100.00;75558.63;5043329;28;20048;-63
2023/06/26 00:57:28;;;;;;;8.82;2.65;;;;;;;-142.75;100.00;75584.22;5044921;28;20064;-63
2023/06/26 00:59:53;;;;;;;8.38;2.20;;;;;;;-142.75;100.00;75594.06;5042460;28;20017;-64
2023/06/26 01:02:20;;;;;;;8.23;2.58;;;;;;;-142.75;100.00;75594.06;5042616;28;20505;-63
2023/06/26 01:04:52;;;;;;;7.15;2.63;;;;;;;-142.75;100.00;75596.00;5045493;28;20488;-63
2023/06/26 01:07:19;;;;;;;5.32;2.50;;;;;;;-142.75;100.00;75590.13;5041520;28;20116;-63
2023/06/26 01:09:47;;;;;;;5.57;2.75;;;;;;;-142.75;100.00;75596.00;5042881;28;20028;-63
2023/06/26 01:12:13;;;;;;;7.57;2.83;;;;;;;-142.75;100.00;75599.94;5043750;28;20265;-63
2023/06/26 01:14:38;;;;;;;7.03;2.58;;;;;;;-142.75;100.00;75609.78;5042276;28;20388;-63
2023/06/26 01:17:04;;;;;;;8.82;2.92;;;;;;;-142.75;100.00;75613.72;5043775;28;20031;-63
2023/06/26 01:19:33;;;;;;;10.90;2.70;;;;;;;-142.75;100.00;75609.78;5042295;28;20036;-63
2023/06/26 01:22:18;;;;;;;7.03;2.65;;;;;;;-142.75;100.00;75617.66;5042598;28;20079;-63
2023/06/26 01:25:12;;;;;;;15.80;3.33;;;;;;;-142.75;100.00;75629.47;5042473;28;20074;-62
2023/06/26 01:27:39;;;;;;;6.68;2.53;;;;;;;-142.75;100.00;75645.22;5060885;28;20033;-63
2023/06/26 01:30:05;;;;;;;8.15;2.65;;;;;;;-142.75;100.00;75633.41;5042638;28;20033;-63
2023/06/26 01:32:32;;;;;;;6.78;2.80;;;;;;;-142.75;100.00;75633.41;5041409;28;20115;-63
2023/06/26 01:34:59;;;;;;;10.48;2.95;;;;;;;-142.75;100.00;75619.63;5040901;28;20016;-62
2023/06/26 01:37:25;;;;;;;8.55;3.17;;;;;;;-142.75;100.00;75631.44;5041368;28;20108;-63
2023/06/26 01:39:50;;;;;;;8.73;2.83;;;;;;;-142.75;100.00;75617.66;5040929;28;20115;-63
2023/06/26 01:42:16;;;;;;;8.27;2.65;;;;;;;-142.75;100.00;75645.22;5040658;28;20060;-63
2023/06/26 01:44:46;;;;;;;9.93;3.15;;;;;;;-142.75;100.00;75655.06;5043493;28;20037;-63
2023/06/26 01:47:17;;;;;;;7.38;3.00;;;;;;;-142.75;100.00;75660.97;5041903;28;20040;-63
2023/06/26 01:49:59;;;;;;;6.82;2.70;;;;;;;-142.75;100.00;75670.81;5043490;28;20021;-63
2023/06/26 01:52:41;;;;;;;9.60;3.38;;;;;;;-142.75;100.00;75668.84;5043201;28;20032;-63
2023/06/26 01:55:21;;;;;;;8.75;2.80;;;;;;;-142.75;100.00;75672.78;5043091;28;20500;-64
2023/06/26 01:57:47;;;;;;;8.57;2.72;;;;;;;-142.75;100.00;75676.69;5042527;28;20638;-63
2023/06/26 02:00:17;;;;;;;11.80;2.80;;;;;;;-142.75;100.00;75686.53;5041362;28;20385;-63
2023/06/26 02:02:43;;;;;;;10.68;3.60;;;;;;;-142.75;100.00;75696.38;5041547;28;20192;-63
2023/06/26 02:05:08;;;;;;;8.77;2.88;;;;;;;-142.75;100.00;75700.31;5042622;28;20029;-63
2023/06/26 02:07:34;;;;;;;8.50;2.92;;;;;;;-142.75;100.00;75712.13;5042947;28;20033;-63
2023/06/26 02:09:59;;;;;;;11.55;3.25;;;;;;;-142.75;100.00;75716.06;5042828;28;20066;-63
2023/06/26 02:12:25;;;;;;;10.73;3.30;;;;;;;-142.75;100.00;75720.00;5042712;28;20025;-63
2023/06/26 02:14:51;;;;;;;8.30;3.45;;;;;;;-142.75;100.00;75720.00;5043012;28;20028;-63
2023/06/26 02:17:16;;;;;;;9.75;3.05;;;;;;;-142.75;100.00;75720.00;5062510;28;20028;-63
2023/06/26 02:19:47;;;;;;;8.80;3.25;;;;;;;-142.75;100.00;75729.84;5062512;28;20035;-63
2023/06/26 02:22:14;;;;;;;8.05;2.92;;;;;;;-142.75;100.00;75710.16;5057015;28;20537;-63
2023/06/26 02:24:39;;;;;;;7.30;3.03;;;;;;;-142.75;100.00;75716.06;5055692;28;20040;-63
2023/06/26 02:27:04;;;;;;;9.73;2.88;;;;;;;-142.75;100.00;75731.81;5043154;28;20032;-63
2023/06/26 02:29:30;;;;;;;13.93;3.33;;;;;;;-142.75;100.00;75735.75;5042784;28;20031;-61
2023/06/26 02:31:55;;;;;;;9.82;3.30;;;;;;;-142.75;100.00;75743.63;5044492;28;20029;-63
2023/06/26 02:34:20;;;;;;;11.77;3.33;;;;;;;-142.75;100.00;75743.63;5059252;28;20025;-63
2023/06/26 02:36:45;;;;;;;11.32;3.50;;;;;;;-142.75;100.00;75729.84;5042928;28;20048;-62
2023/06/26 02:39:11;;;;;;;8.43;3.25;;;;;;;-142.75;100.00;75731.81;5042438;28;20550;-63
2023/06/26 02:41:36;;;;;;;9.30;2.97;;;;;;;-142.75;100.00;75755.44;5042640;28;20548;-64
2023/06/26 02:44:02;;;;;;;7.15;2.65;;;;;;;-142.75;100.00;75767.22;5041358;28;20029;-63
2023/06/26 02:46:27;;;;;;;7.47;3.08;;;;;;;-142.75;100.00;75771.16;5062121;28;20024;-63
2023/06/26 02:48:52;;;;;;;10.02;2.85;;;;;;;-142.75;100.00;75773.13;5062231;28;20020;-63
2023/06/26 02:51:18;;;;;;;11.20;3.20;;;;;;;-142.75;100.00;75773.13;5062762;28;20396;-63
2023/06/26 02:53:43;;;;;;;10.30;3.45;;;;;;;-142.75;100.00;75779.03;5061956;28;20395;-63
2023/06/26 02:56:08;;;;;;;9.75;3.35;;;;;;;-142.75;100.00;75781.00;5061930;28;20048;-63
2023/06/26 02:58:34;;;;;;;8.52;3.22;;;;;;;-142.75;100.00;75788.88;5050686;28;20037;-63
2023/06/26 03:00:59;;;;;;;10.45;3.22;;;;;;;-142.75;100.00;75790.84;5042235;28;20391;-63
2023/06/26 03:03:25;;;;;;;12.00;2.80;;;;;;;-142.75;100.00;75804.63;5038422;28;20480;-63
2023/06/26 03:05:50;;;;;;;10.23;3.22;;;;;;;-142.75;100.00;75798.72;5042602;28;20060;-63
2023/06/26 03:08:16;;;;;;;12.60;3.15;;;;;;;-142.75;100.00;75798.72;5055457;28;20066;-62
2023/06/26 03:10:41;;;;;;;8.95;2.83;;;;;;;-142.75;100.00;75804.63;5062103;28;20029;-64
2023/06/26 03:13:07;;;;;;;11.00;2.92;;;;;;;-142.75;100.00;75804.63;5061818;28;20111;-62
2023/06/26 03:15:32;;;;;;;12.27;3.35;;;;;;;-142.75;100.00;75808.56;5062230;28;20017;-63
2023/06/26 03:17:57;;;;;;;9.35;3.30;;;;;;;-142.75;100.00;75834.16;5063966;28;20644;-63
2023/06/26 03:20:23;;;;;;;11.63;3.75;;;;;;;-142.75;100.00;75838.09;5065140;28;21741;-63
2023/06/26 03:22:48;;;;;;;7.97;2.78;;;;;;;-142.75;100.00;75847.94;5046145;28;20056;-63
2023/06/26 03:25:13;;;;;;;12.52;3.65;;;;;;;-142.75;100.00;75847.94;5045900;28;20059;-63
2023/06/26 03:27:39;;;;;;;8.73;3.35;;;;;;;-142.75;100.00;75851.88;5046553;28;20032;-63
2023/06/26 03:30:04;;;;;;;11.45;3.40;;;;;;;-142.75;100.00;75842.03;5044512;28;20060;-63
2023/06/26 03:32:30;;;;;;;8.07;3.03;;;;;;;-142.75;100.00;75877.44;5045654;28;20044;-63
2023/06/26 03:34:56;;;;;;;9.70;2.95;;;;;;;-142.75;100.00;75857.78;5044570;28;20581;-62
2023/06/26 03:37:21;;;;;;;10.70;3.15;;;;;;;-142.75;100.00;75889.25;5044525;28;20029;-62
2023/06/26 03:39:47;;;;;;;11.73;2.78;;;;;;;-142.75;100.00;75893.19;5045428;28;20039;-62
2023/06/26 03:42:12;;;;;;;8.18;2.60;;;;;;;-142.75;100.00;75914.84;5045498;28;20206;-62
2023/06/26 03:44:38;;;;;;;6.70;2.80;;;;;;;-142.75;100.00;75924.69;5045727;28;20058;-62
2023/06/26 03:47:03;;;;;;;9.65;3.05;;;;;;;-142.75;100.00;75930.59;5047224;28;20033;-62
2023/06/26 03:49:28;;;;;;;16.13;2.95;;;;;;;-142.75;100.00;75924.69;5065280;28;20021;-63
2023/06/26 03:51:54;;;;;;;8.48;2.67;;;;;;;-142.75;100.00;75932.56;5061883;28;20020;-63
2023/06/26 03:54:19;;;;;;;11.38;2.85;;;;;;;-142.75;100.00;75920.75;5044037;28;22447;-62
2023/06/26 03:56:45;;;;;;;9.35;3.30;;;;;;;-142.75;100.00;75932.56;5054695;28;20020;-62
2023/06/26 03:59:10;;;;;;;10.05;2.67;;;;;;;-142.75;100.00;75938.47;5064681;28;20070;-62
2023/06/26 04:01:37;;;;;;;9.25;3.13;;;;;;;-142.75;100.00;75940.44;5064300;28;20032;-63
2023/06/26 04:04:02;;;;;;;7.22;2.55;;;;;;;-142.75;100.00;75956.19;5055828;28;20020;-61
2023/06/26 04:06:28;;;;;;;9.40;2.75;;;;;;;-142.75;100.00;75942.41;5049599;28;20067;-62
2023/06/26 04:08:53;;;;;;;9.77;2.75;;;;;;;-142.75;100.00;75960.13;5042963;28;20078;-63
2023/06/26 04:11:19;;;;;;;8.35;2.35;;;;;;;-142.75;100.00;75950.28;5044856;28;20520;-63
2023/06/26 04:13:44;;;;;;;8.02;2.67;;;;;;;-142.75;100.00;75962.09;5044181;28;20086;-63
2023/06/26 04:16:11;;;;;;;6.00;2.60;;;;;;;-142.75;100.00;75962.09;5044362;28;20166;-63
2023/06/26 04:18:37;;;;;;;7.30;2.35;;;;;;;-142.75;100.00;75979.78;5044394;28;20054;-63
2023/06/26 04:21:11;;;;;;;10.35;2.95;;;;;;;-142.75;100.00;75977.81;5044715;28;20025;-63
2023/06/26 04:23:37;;;;;;;7.97;2.78;;;;;;;-142.75;100.00;75981.75;5044317;28;20024;-62
2023/06/26 04:26:04;;;;;;;11.80;3.10;;;;;;;-142.75;100.00;75991.59;5044049;28;20447;-62
2023/06/26 04:28:33;;;;;;;7.75;2.38;;;;;;;-142.75;100.00;76003.41;5044628;28;20103;-63
2023/06/26 04:30:59;;;;;;;10.07;2.88;;;;;;;-142.75;100.00;75991.59;5043897;28;20086;-63
2023/06/26 04:33:25;;;;;;;7.53;2.65;;;;;;;-142.75;100.00;75987.66;5046714;28;20626;-63
2023/06/26 04:35:51;;;;;;;12.25;3.10;;;;;;;-142.75;100.00;75989.63;5044598;28;20534;-63
2023/06/26 04:38:16;;;;;;;8.88;2.85;;;;;;;-142.75;100.00;76005.38;5043780;28;20029;-63
2023/06/26 04:40:42;;;;;;;7.13;2.63;;;;;;;-142.75;100.00;76001.44;5055260;28;20055;-63
2023/06/26 04:43:08;;;;;;;9.70;2.97;;;;;;;-142.75;100.00;76007.34;5056804;28;20029;-63
2023/06/26 04:45:33;;;;;;;11.35;2.78;;;;;;;-142.75;100.00;75997.50;5043777;28;20697;-63
2023/06/26 04:48:00;;;;;;;5.30;2.83;;;;;;;-142.75;100.00;76001.44;5044025;28;20139;-62
2023/06/26 04:50:25;;;;;;;9.05;2.65;;;;;;;-142.75;100.00;76003.41;5044260;28;20032;-62
2023/06/26 04:52:50;;;;;;;6.80;2.50;;;;;;;-142.75;100.00;75995.53;5045065;28;20025;-62
2023/06/26 04:55:16;;;;;;;7.57;2.30;;;;;;;-142.75;100.00;75983.72;5043836;28;20021;-62
2023/06/26 04:57:41;;;;;;;10.88;2.53;;;;;;;-142.75;100.00;75995.53;5044915;28;20027;-63
2023/06/26 05:00:10;;;;;;;7.97;2.53;;;;;;;-142.75;100.00;75993.56;5043967;28;20148;-63
2023/06/26 05:02:36;;;;;;;6.20;2.47;;;;;;;-142.75;100.00;75995.53;5043531;28;20031;-63
2023/06/26 05:05:02;;;;;;;5.93;2.20;;;;;;;-142.75;100.00;75995.53;5044066;28;20057;-63
2023/06/26 05:07:27;;;;;;;7.03;2.45;;;;;;;-142.75;100.00;75987.66;5043304;28;20037;-63
2023/06/26 05:09:53;;;;;;;7.85;2.40;;;;;;;-142.75;100.00;76003.41;5043627;28;20021;-63
2023/06/26 05:12:18;;;;;;;5.63;1.90;;;;;;;-142.75;100.00;76007.34;5043172;28;20041;-63
2023/06/26 05:14:44;;;;;;;8.48;2.33;;;;;;;-142.75;100.00;75989.63;5053655;28;20048;-64
2023/06/26 05:17:09;;;;;;;6.43;2.10;;;;;;;-142.75;100.00;75991.59;5063954;28;20109;-64
2023/06/26 05:19:34;;;;;;;6.63;2.45;;;;;;;-142.75;100.00;75989.63;5066069;28;20039;-63
2023/06/26 05:22:03;;;;;;;7.90;2.45;;;;;;;-142.75;100.00;75969.94;5067157;28;20036;-63
2023/06/26 05:24:30;;;;;;;5.22;2.25;;;;;;;-142.75;100.00;75967.97;5066736;28;20490;-63
2023/06/26 05:26:56;;;;;;;3.92;2.03;;;;;;;-142.75;100.00;75969.94;5066734;28;20028;-63
2023/06/26 05:29:21;;;;;;;4.43;2.40;;;;;;;-142.75;100.00;75969.94;5066758;28;20074;-63
2023/06/26 05:31:50;;;;;;;7.15;2.25;;;;;;;-142.75;100.00;75960.13;5066555;28;20036;-63
2023/06/26 05:34:16;;;;;;;5.38;2.10;;;;;;;-142.75;100.00;75962.09;5066354;28;20107;-63
2023/06/26 05:36:43;;;;;;;6.25;2.28;;;;;;;-142.75;100.00;75967.97;5066709;28;20067;-63
2023/06/26 05:39:09;;;;;;;7.28;2.40;;;;;;;-142.75;100.00;75954.22;5066153;28;20022;-63
2023/06/26 05:41:34;;;;;;;5.35;2.20;;;;;;;-142.75;100.00;75948.31;5066111;28;20476;-63
2023/06/26 05:44:00;;;;;;;3.80;2.05;;;;;;;-142.75;100.00;75964.03;5065829;28;20637;-63
2023/06/26 05:46:25;;;;;;;5.38;1.90;;;;;;;-142.75;100.00;75979.78;5065067;28;20499;-62
2023/06/26 05:48:50;;;;;;;7.82;1.98;;;;;;;-142.75;100.00;75973.88;5066492;28;20024;-63
2023/06/26 05:51:16;;;;;;;4.82;1.95;;;;;;;-142.75;100.00;75977.81;5066549;28;20025;-63
2023/06/26 05:53:42;;;;;;;5.22;1.67;;;;;;;-142.75;100.00;75991.59;5066114;28;20033;-63
2023/06/26 05:56:07;;;;;;;5.15;1.33;;;;;;;-142.75;100.00;75987.66;5066242;28;20029;-63
2023/06/26 05:58:34;;;;;;;3.95;1.05;;;;;;;-142.75;100.00;76017.19;5065911;28;20028;-63
2023/06/26 06:00:59;;;;;;;7.70;0.98;;;;;;;-142.75;100.00;76034.91;5066178;28;20052;-63
2023/06/26 06:03:25;;;;;;;1.80;0.93;;;;;;;-142.75;100.00;76015.22;5065965;28;20067;-64
2023/06/26 06:05:50;;;;;;;2.90;0.90;;;;;;;-142.75;100.00;76011.28;5065698;28;20476;-64
2023/06/26 06:08:15;;;;;;;4.55;1.08;;;;;;;-142.75;100.00;76034.91;5065893;28;20048;-63
2023/06/26 06:10:41;;;;;;;6.10;0.90;;;;;;;-142.75;100.00;76030.97;5065921;28;20029;-64
2023/06/26 06:13:07;;;;;;;7.30;1.35;;;;;;;-142.75;100.00;76019.16;5065576;28;20028;-63
2023/06/26 06:15:32;;;;;;;5.80;1.23;;;;;;;-142.75;100.00;76009.31;5065818;28;20027;-63
2023/06/26 06:17:57;;;;;;;6.60;0.88;;;;;;;-142.75;100.00;76001.44;5065959;28;20036;-63
2023/06/26 06:20:23;;;;;;;1.98;0.73;;;;;;;-142.75;100.00;75983.72;5066187;28;20690;-62
2023/06/26 06:22:48;;;;;;;6.43;0.70;;;;;;;-142.75;100.00;76019.16;5056538;28;20032;-64
2023/06/26 06:25:14;;;;;;;1.60;0.60;;;;;;;-142.75;100.00;76029.00;5045071;28;20035;-63
2023/06/26 06:27:40;;;;;;;6.05;1.02;;;;;;;-142.75;100.00;76032.94;5045511;28;20103;-64
2023/06/26 06:30:06;;;;;;;2.20;0.70;;;;;;;-142.75;100.00;76042.78;5045673;28;20513;-62
2023/06/26 06:32:32;;;;;;;4.57;1.88;;;;;;;-142.75;100.00;76082.13;5044191;28;20495;-62
2023/06/26 06:34:57;;;;;;;2.38;0.57;;;;;;;-142.75;100.00;76090.00;5043090;28;20028;-62
2023/06/26 06:37:22;;;;;;;2.63;0.57;;;;;;;-142.75;100.00;76082.13;5042014;28;20113;-61
2023/06/26 06:39:48;;;;;;;2.83;1.00;;;;;;;-142.75;100.00;76095.91;5042612;28;20021;-62
2023/06/26 06:42:13;;;;;;;8.32;1.10;;;;;;;-142.75;100.00;76078.19;5044391;28;20049;-63
2023/06/26 06:44:38;;;;;;;4.13;0.85;;;;;;;-142.75;100.00;76054.59;5044326;28;20037;-62
2023/06/26 06:47:04;;;;;;;2.55;1.00;;;;;;;-142.75;100.00;76048.69;5044062;28;20082;-62
2023/06/26 06:49:29;;;;;;;2.35;0.95;;;;;;;-142.75;100.00;76013.25;5042765;28;20028;-63
2023/06/26 06:51:55;;;;;;;6.80;0.95;;;;;;;-142.75;100.00;75983.72;5038980;28;20534;-63
2023/06/26 06:54:20;;;;;;;2.95;0.80;;;;;;;-142.75;100.00;75999.47;5049543;28;20027;-62
2023/06/26 06:56:45;;;;;;;3.42;0.85;;;;;;;-142.75;100.00;76011.28;5048656;28;20023;-62
2023/06/26 06:59:11;;;;;;;3.47;0.95;;;;;;;-142.75;100.00;76023.09;5047533;28;20050;-62
2023/06/26 07:01:36;;;;;;;2.92;0.68;;;;;;;-142.75;100.00;76011.28;5044460;28;20036;-63
2023/06/26 07:04:03;;;;;;;6.43;1.02;;;;;;;-142.75;100.00;75999.47;5045155;28;20025;-62
2023/06/26 07:06:29;;;;;;;2.38;0.90;;;;;;;-142.75;100.00;75993.56;5048389;28;20484;-62
2023/06/26 07:08:54;;;;;;;6.18;0.93;;;;;;;-142.75;100.00;75981.75;5049453;28;20025;-64
2023/06/26 07:11:20;;;;;;;3.60;1.15;;;;;;;-142.75;100.00;76011.28;5048288;28;20029;-61
2023/06/26 07:13:45;;;;;;;1.80;0.60;;;;;;;-142.75;100.00;76001.44;5048956;28;20471;-62
2023/06/26 07:16:11;;;;;;;4.88;0.80;;;;;;;-142.75;100.00;75987.66;5056876;28;20021;-61
2023/06/26 07:18:38;;;;;;;3.45;0.70;;;;;;;-142.75;100.00;75969.94;5051022;28;20017;-61
2023/06/26 07:21:03;;;;;;;3.42;0.80;;;;;;;-142.75;100.00;75975.84;5046573;28;20120;-61
2023/06/26 07:23:29;;;;;;;3.30;0.95;;;;;;;-142.75;100.00;75991.59;5047857;28;20029;-62
2023/06/26 07:25:54;;;;;;;3.55;1.08;;;;;;;-142.75;100.00;75971.91;5048640;28;20450;-61
2023/06/26 07:28:19;;;;;;;4.85;0.80;;;;;;;-142.75;100.00;75958.16;5047344;28;20059;-62
2023/06/26 07:30:45;;;;;;;4.32;1.15;;;;;;;-142.75;100.00;75932.56;5047987;28;20023;-61
2023/06/26 07:33:10;;;;;;;3.70;1.02;;;;;;;-142.75;100.00;75940.44;5048200;28;20040;-63
2023/06/26 07:35:35;;;;;;;3.30;0.77;;;;;;;-142.75;100.00;75938.47;5048595;28;20045;-63
2023/06/26 07:38:01;;;;;;;2.67;0.77;;;;;;;-142.75;100.00;75936.50;5056848;28;20115;-62
2023/06/26 07:40:27;;;;;;;6.18;0.98;;;;;;;-142.75;100.00;75908.94;5053633;28;20091;-63
2023/06/26 07:42:53;;;;;;;4.78;1.08;;;;;;;-142.75;100.00;75889.25;5046919;28;20032;-60
2023/06/26 07:45:19;;;;;;;4.28;1.13;;;;;;;-142.75;100.00;75893.19;5048159;28;20044;-64
2023/06/26 07:47:45;;;;;;;3.08;0.80;;;;;;;-142.75;100.00;75889.25;5048330;28;20025;-63
2023/06/26 07:50:11;;;;;;;3.30;1.10;;;;;;;-142.75;100.00;75903.03;5047840;28;20048;-64
2023/06/26 07:52:37;;;;;;;4.32;1.00;;;;;;;-142.75;100.00;75924.69;5045870;28;20032;-61
2023/06/26 07:55:03;;;;;;;11.43;1.90;;;;;;;-142.75;100.00;75916.81;5047878;28;20020;-62
2023/06/26 07:57:29;;;;;;;145.60;8.20;;;;;;;-142.75;100.00;75881.38;5047193;28;20500;-63
2023/06/26 07:59:55;;;;;;;3.60;0.80;;;;;;;-142.75;100.00;75875.47;5047898;28;20124;-64
2023/06/26 08:02:21;;;;;;;3.78;1.13;;;;;;;-142.75;100.00;75877.44;5047975;28;20520;-63
2023/06/26 08:04:46;;;;;;;4.72;1.25;;;;;;;-142.75;100.00;75908.94;5046651;28;20117;-64
2023/06/26 08:07:13;;;;;;;5.47;1.40;;;;;;;-142.75;100.00;75889.25;5047817;28;20020;-64
2023/06/26 08:09:39;;;;;;;3.70;0.90;;;;;;;-142.75;100.00;75895.16;5047670;28;20032;-65
2023/06/26 08:12:04;;;;;;;5.55;1.10;;;;;;;-142.75;100.00;75867.59;5047747;28;20090;-64
2023/06/26 08:14:31;;;;;;;2.97;0.70;;;;;;;-142.75;100.00;75845.97;5047379;28;20551;-64
2023/06/26 08:16:57;;;;;;;6.63;1.20;;;;;;;-142.75;100.00;75840.06;5047269;28;20123;-63
2023/06/26 08:19:22;;;;;;;4.30;0.90;;;;;;;-142.75;100.00;75830.22;5046507;28;20092;-63
2023/06/26 08:21:48;;;;;;;5.72;1.00;;;;;;;-142.75;97.64;75853.84;5048056;28;20546;-62
2023/06/26 08:24:16;;;;;;;3.65;1.10;;;;;;;-142.75;98.00;75845.97;5047037;28;20025;-63
2023/06/26 08:26:42;;;;;;;1.67;0.90;;;;;;;-142.75;98.94;75830.22;5047586;28;20048;-63
2023/06/26 08:29:08;;;;;;;4.75;1.10;;;;;;;-142.75;97.59;75824.31;5047742;28;20063;-62
2023/06/26 08:31:37;;;;;;;4.20;1.10;;;;;;;-142.75;97.61;75806.59;5047345;28;20032;-62
2023/06/26 08:34:04;;;;;;;5.05;1.05;;;;;;;-142.75;99.76;75792.81;5047331;28;20032;-63
2023/06/26 08:36:29;;;;;;;4.28;1.00;;;;;;;-142.75;94.36;75822.34;5047331;28;20095;-64
2023/06/26 08:38:55;;;;;;;2.83;0.90;;;;;;;-142.75;96.78;75834.16;5047527;28;20055;-62
2023/06/26 08:41:20;;;;;;;4.65;1.15;;;;;;;-142.75;97.27;75822.34;5047545;28;20021;-62
2023/06/26 08:43:46;;;;;;;3.63;1.02;;;;;;;-142.75;92.69;75828.25;5047479;28;20488;-64
2023/06/26 08:46:11;;;;;;;6.13;1.50;;;;;;;-142.75;93.28;75859.72;5047602;28;20629;-62
2023/06/26 08:48:37;;;;;;;2.28;0.98;;;;;;;-142.75;95.14;75830.22;5047629;28;20039;-62
2023/06/26 08:51:11;;;;;;;3.10;1.08;;;;;;;-142.75;93.35;75806.59;5048012;28;20021;-62
2023/06/26 08:53:57;;;;;;;3.15;0.90;;;;;;;-142.75;92.76;75810.53;5047234;28;20404;-62
2023/06/26 08:56:23;;;;;;;6.45;1.25;;;;;;;-142.75;93.46;75818.41;5047760;28;20017;-62
2023/06/26 08:58:49;;;;;;;2.10;0.73;;;;;;;-142.75;97.01;75802.66;5047439;28;20017;-63
2023/06/26 09:01:15;;;;;;;10.13;1.83;;;;;;;-142.75;94.02;75786.91;5046839;28;20695;-62
2023/06/26 09:03:41;;;;;;;3.72;1.10;;;;;;;-142.75;98.44;75775.09;5046997;28;20032;-62
2023/06/26 09:06:07;;;;;;;3.45;1.25;;;;;;;-142.75;93.64;75775.09;5047077;28;20038;-62
2023/06/26 09:08:32;;;;;;;5.95;1.05;;;;;;;-142.75;89.29;75812.50;5047080;28;20749;-62
2023/06/26 09:10:57;;;;;;;3.22;0.90;;;;;;;-142.75;92.03;75794.78;5046844;28;20031;-62
2023/06/26 09:13:23;;;;;;;4.22;0.90;;;;;;;-142.75;93.70;75763.28;5044526;28;20392;-63
2023/06/26 09:15:49;;;;;;;4.80;1.25;;;;;;;-142.75;91.46;75773.13;5046118;28;20044;-63
2023/06/26 09:18:19;;;;;;;4.10;1.35;;;;;;;-142.75;91.09;75784.94;5046482;28;20025;-61
2023/06/26 09:20:44;;;;;;;2.60;0.80;;;;;;;-142.75;90.05;75755.44;5048030;28;20036;-63
2023/06/26 09:23:10;;;;;;;2.45;0.77;;;;;;;-142.75;91.24;75749.53;5042357;28;20036;-62
2023/06/26 09:25:38;;;;;;;5.00;0.95;;;;;;;-142.75;84.69;75761.34;5047237;28;20032;-62
2023/06/26 09:28:03;;;;;;;5.10;1.30;;;;;;;-142.75;87.61;75755.44;5046555;28;20032;-62
2023/06/26 09:30:32;;;;;;;3.17;1.00;;;;;;;-142.75;85.96;75767.22;5046521;28;20404;-62
2023/06/26 09:32:57;;;;;;;4.30;1.10;;;;;;;-142.75;83.08;75773.13;5046661;28;20377;-62
2023/06/26 09:35:23;;;;;;;4.07;1.35;;;;;;;-142.75;83.14;75771.16;5046146;28;20099;-62
2023/06/26 09:37:49;;;;;;;3.65;0.70;;;;;;;-142.75;80.96;75769.19;5046786;28;20058;-63
2023/06/26 09:40:14;;;;;;;4.03;0.90;;;;;;;-142.75;82.36;75759.38;5044578;28;20222;-62
2023/06/26 09:42:41;;;;;;;1.77;0.82;;;;;;;-142.75;82.89;75759.38;5046169;28;20056;-62
2023/06/26 09:45:07;;;;;;;3.65;1.15;;;;;;;-142.75;82.14;75786.91;5046288;28;20079;-62
2023/06/26 09:47:34;;;;;;;5.15;1.00;;;;;;;-142.75;83.92;75759.38;5046181;28;20039;-63
2023/06/26 09:50:02;;;;;;;3.67;1.33;;;;;;;-142.75;85.41;75741.66;5046146;28;20029;-62
2023/06/26 09:52:30;;;;;;;7.47;1.10;;;;;;;-142.75;83.72;75767.22;5046752;28;20098;-61
2023/06/26 09:55:09;;;;;;;6.35;1.20;;;;;;;-142.75;85.82;75757.41;5045951;28;20137;-60
2023/06/26 09:57:35;;;;;;;4.93;1.02;;;;;;;-142.75;85.44;75753.47;5046503;28;20035;-61
2023/06/26 10:00:02;;;;;;;3.63;1.15;;;;;;;-142.75;81.73;75824.31;5045988;28;20037;-62
2023/06/26 10:02:28;;;;;;;5.70;1.00;;;;;;;-142.75;84.72;75853.84;5046089;28;20027;-62
2023/06/26 10:04:53;;;;;;;4.85;1.13;;;;;;;-142.75;84.78;75861.69;5046054;28;20133;-62
2023/06/26 10:07:19;;;;;;;3.17;1.23;;;;;;;-142.75;85.56;75867.59;5046098;28;20099;-62
2023/06/26 10:09:48;;;;;;;5.20;1.17;;;;;;;-142.75;85.86;75836.13;5045992;28;20214;-62
2023/06/26 10:12:19;;;;;;;6.25;1.92;;;;;;;-142.75;87.98;75806.59;5045996;28;20029;-62
2023/06/26 10:14:45;;;;;;;3.15;1.08;;;;;;;-142.75;86.56;75857.78;5045656;28;20175;-62
2023/06/26 10:17:15;;;;;;;2.22;1.10;;;;;;;-142.75;86.67;75861.69;5045957;28;20098;-62
2023/06/26 10:19:44;;;;;;;3.17;1.08;;;;;;;-142.75;87.94;75828.25;5045920;28;20036;-62
2023/06/26 10:22:12;;;;;;;5.63;1.10;;;;;;;-142.75;87.01;75806.59;5046449;28;20434;-62
2023/06/26 10:24:40;;;;;;;3.35;0.90;;;;;;;-142.75;86.99;75816.44;5045776;28;20078;-62
2023/06/26 10:27:16;;;;;;;4.15;1.20;;;;;;;-142.75;85.84;75798.72;5045419;28;20050;-60
2023/06/26 10:29:46;;;;;;;5.75;1.08;;;;;;;-142.75;85.52;75790.84;5045999;28;20627;-63
2023/06/26 10:32:13;;;;;;;3.42;1.27;;;;;;;-142.75;85.04;75838.09;5045878;28;20032;-63
2023/06/26 10:34:38;;;;;;;3.58;1.08;;;;;;;-142.75;86.29;75844.00;5045683;28;20017;-62
2023/06/26 10:37:04;;;;;;;1.85;0.73;;;;;;;-142.75;87.75;75814.47;5057205;28;20093;-62
2023/06/26 10:39:56;;;;;;;6.20;2.25;;;;;;;-142.75;85.48;75788.88;5065404;28;20025;-63
2023/06/26 10:42:36;;;;;;;3.35;0.88;;;;;;;-142.75;83.51;75804.63;5059478;28;20040;-62
2023/06/26 10:45:14;;;;;;;4.28;0.80;;;;;;;-142.75;84.18;75814.47;5065425;28;20112;-63
2023/06/26 10:47:41;;;;;;;3.08;0.93;;;;;;;-142.75;84.92;75800.69;5065441;28;20526;-63
2023/06/26 10:50:20;;;;;;;3.28;0.80;;;;;;;-142.75;82.76;75786.91;5065506;28;20028;-62
2023/06/26 10:52:46;;;;;;;2.05;0.75;;;;;;;-142.75;79.54;75781.00;5065337;28;20020;-62
2023/06/26 10:55:13;;;;;;;2.70;0.85;;;;;;;-142.75;78.83;75796.75;5065484;28;20491;-62
2023/06/26 10:57:44;;;;;;;6.43;0.88;;;;;;;-142.75;81.15;75784.94;5065499;28;20029;-60
2023/06/26 11:00:11;;;;;;;5.18;0.88;;;;;;;-142.75;78.97;75824.31;5065255;28;20036;-61
2023/06/26 11:02:52;;;;;;;2.47;0.70;;;;;;;-142.75;78.89;75842.03;5065516;28;20020;-60
2023/06/26 11:05:33;;;;;;;2.08;0.63;;;;;;;-142.75;78.47;75849.91;5065405;28;20412;-59
2023/06/26 11:08:05;;;;;;;2.80;0.60;;;;;;;-142.75;76.70;75857.78;5065236;28;20527;-62